Terminal Aerodrome Forecast
Issued by NWS

Home | Current Version | Previous Version | Graphics & Text | Print | Product List | Glossary On
Versions: 1 2 3 4 5 6 7 8 9 10 11 12 13 14 15
000
FTUS43 KICT 281120
TAFRSL
TAF
KRSL 281120Z 2812/2912 19014G20KT P6SM SCT100 SCT250
     FM281500 21014KT P6SM SCT100 SCT250
     FM282100 35014KT P6SM VCTS SCT070CB
     FM290300 02010KT P6SM BKN250=

USA.gov is the U.S. government's official web portal to all federal, state and local government web resources and services.